createdAt,value
2018-03-24T00:02:25.296Z,22.67
2018-03-24T00:04:53.551Z,23.90
2018-03-24T00:07:21.059Z,24.33
2018-03-24T00:09:48.552Z,22.97
2018-03-24T00:12:16.059Z,21.53
2018-03-24T00:14:43.553Z,22.30
2018-03-24T00:17:11.835Z,21.30
2018-03-24T00:19:39.324Z,21.70
2018-03-24T00:22:07.592Z,22.27
2018-03-24T00:24:35.080Z,23.00
2018-03-24T00:27:03.368Z,21.00
2018-03-24T00:29:31.619Z,23.17
2018-03-24T00:31:59.099Z,22.67
2018-03-24T00:34:26.601Z,21.33
2018-03-24T00:36:54.842Z,22.13
2018-03-24T00:39:22.357Z,21.33
2018-03-24T00:41:50.612Z,22.10
2018-03-24T00:44:18.123Z,21.20
2018-03-24T00:46:45.610Z,23.57
2018-03-24T00:49:13.129Z,21.57
2018-03-24T00:51:40.610Z,23.00
2018-03-24T00:54:08.121Z,23.63
2018-03-24T00:56:35.613Z,22.60
2018-03-24T00:59:03.125Z,21.73
2018-03-24T01:01:31.374Z,23.00
2018-03-24T01:03:58.879Z,23.10
2018-03-24T01:06:27.134Z,20.60
2018-03-24T01:08:54.639Z,21.67
2018-03-24T01:11:22.122Z,23.77
2018-03-24T01:13:49.635Z,23.87
2018-03-24T01:16:17.115Z,24.23
2018-03-24T01:18:44.629Z,24.00
2018-03-24T01:21:12.879Z,24.87
2018-03-24T01:23:40.372Z,22.63
2018-03-24T01:26:07.871Z,23.10
2018-03-24T01:28:35.354Z,22.17
2018-03-24T01:31:02.864Z,20.73
2018-03-24T01:33:30.351Z,22.00
2018-03-24T01:35:57.855Z,22.97
2018-03-24T01:38:25.334Z,22.70
2018-03-24T01:40:52.834Z,21.83
2018-03-24T01:43:20.317Z,22.03
2018-03-24T01:45:47.824Z,21.47
2018-03-24T01:48:15.315Z,23.17
2018-03-24T01:50:42.816Z,23.33
2018-03-24T01:53:10.293Z,22.43
2018-03-24T01:55:37.768Z,22.90
2018-03-24T01:58:05.285Z,25.83
2018-03-24T02:00:33.628Z,22.57
2018-03-24T02:03:01.141Z,22.03
2018-03-24T02:05:28.636Z,24.70
2018-03-24T02:07:56.144Z,22.60
2018-03-24T02:10:23.643Z,23.87
2018-03-24T02:12:51.907Z,23.53
2018-03-24T02:15:19.392Z,22.63
2018-03-24T02:17:47.659Z,22.27
2018-03-24T02:20:18.987Z,22.20
2018-03-24T02:22:46.490Z,21.63
2018-03-24T02:25:13.976Z,20.90
2018-03-24T02:27:41.479Z,23.63
2018-03-24T02:30:08.964Z,21.80
2018-03-24T02:32:36.506Z,23.80
2018-03-24T02:35:03.969Z,20.57
2018-03-24T02:37:32.234Z,23.40
2018-03-24T02:39:59.716Z,22.10
2018-03-24T02:42:27.215Z,24.30
2018-03-24T02:44:54.701Z,23.13
2018-03-24T02:47:22.202Z,23.73
2018-03-24T02:49:49.700Z,23.33
2018-03-24T02:52:17.981Z,22.43
2018-03-24T02:54:45.464Z,23.43
2018-03-24T02:57:13.724Z,23.00
2018-03-24T02:59:41.243Z,23.10
2018-03-24T03:02:08.736Z,23.90
2018-03-24T03:04:36.264Z,23.70
2018-03-24T03:07:04.520Z,23.83
2018-03-24T03:09:32.033Z,24.10
2018-03-24T03:11:59.523Z,24.50
2018-03-24T03:14:27.044Z,24.53
2018-03-24T03:16:54.534Z,22.90
2018-03-24T03:19:22.813Z,24.83
2018-03-24T03:21:51.065Z,23.43
2018-03-24T03:24:18.572Z,23.13
2018-03-24T03:26:46.053Z,22.90
2018-03-24T03:29:14.319Z,23.13
2018-03-24T03:31:44.605Z,22.70
2018-03-24T03:34:12.124Z,25.03
2018-03-24T03:36:39.620Z,23.97
2018-03-24T03:39:07.138Z,23.13
2018-03-24T03:41:34.616Z,23.23
2018-03-24T03:44:02.100Z,23.00
2018-03-24T03:46:29.611Z,23.30
2018-03-24T03:48:57.102Z,22.80
2018-03-24T03:51:24.604Z,22.73
2018-03-24T03:53:52.101Z,22.67
2018-03-24T03:56:20.376Z,23.87
2018-03-24T03:58:47.855Z,22.93
2018-03-24T04:01:16.136Z,22.77
2018-03-24T04:03:43.622Z,22.50
2018-03-24T04:06:11.887Z,22.90
2018-03-24T04:08:39.367Z,23.37
2018-03-24T04:11:07.654Z,19.80
2018-03-24T04:13:35.146Z,21.20
2018-03-24T04:16:03.417Z,21.67
2018-03-24T04:18:30.901Z,20.50
2018-03-24T04:20:59.171Z,21.83
2018-03-24T04:23:26.655Z,21.93
2018-03-24T04:25:54.933Z,22.37
2018-03-24T04:28:22.419Z,22.20
2018-03-24T04:30:50.708Z,21.07
2018-03-24T04:33:18.969Z,22.47
2018-03-24T04:35:46.460Z,21.57
2018-03-24T04:38:13.967Z,20.87
2018-03-24T04:40:41.450Z,21.37
2018-03-24T04:43:08.949Z,21.60
2018-03-24T04:45:36.438Z,20.53
2018-03-24T04:48:04.708Z,20.57
2018-03-24T04:50:32.201Z,21.47
2018-03-24T04:53:00.471Z,22.07
2018-03-24T04:55:27.954Z,20.50
2018-03-24T04:57:56.232Z,21.37
2018-03-24T05:00:24.488Z,20.87
2018-03-24T05:02:52.022Z,19.60
2018-03-24T05:05:19.517Z,21.07
2018-03-24T05:07:47.003Z,19.90
2018-03-24T05:10:14.501Z,21.60
2018-03-24T05:12:41.980Z,18.80
2018-03-24T05:15:10.253Z,22.03
2018-03-24T05:17:37.734Z,21.13
2018-03-24T05:20:05.244Z,20.43
2018-03-24T05:22:32.728Z,20.57
2018-03-24T05:25:00.239Z,20.37
2018-03-24T05:27:27.730Z,21.10
2018-03-24T05:29:56.996Z,19.50
2018-03-24T05:32:24.482Z,19.93
2018-03-24T05:34:52.004Z,20.57
2018-03-24T05:37:19.491Z,18.57
2018-03-24T05:39:46.999Z,19.20
2018-03-24T05:42:14.483Z,19.93
2018-03-24T05:44:42.752Z,18.33
2018-03-24T05:47:10.244Z,18.53
2018-03-24T05:49:38.517Z,18.67
2018-03-24T05:52:06.009Z,19.53
2018-03-24T05:54:34.281Z,18.60
2018-03-24T05:57:01.768Z,18.10
2018-03-24T05:59:30.046Z,17.70
2018-03-24T06:02:18.412Z,18.33
2018-03-24T06:04:46.684Z,17.87
2018-03-24T06:07:14.178Z,18.17
2018-03-24T06:09:42.432Z,17.80
2018-03-24T06:12:13.273Z,17.93
2018-03-24T06:14:40.878Z,18.37
2018-03-24T06:17:08.420Z,18.77
2018-03-24T06:19:37.929Z,17.97
2018-03-24T06:22:05.449Z,18.60
2018-03-24T06:24:33.699Z,20.00
2018-03-24T06:27:01.208Z,18.07
2018-03-24T06:29:33.152Z,19.70
2018-03-24T06:32:01.234Z,18.47
2018-03-24T06:34:28.715Z,19.27
2018-03-24T06:36:57.044Z,20.03
2018-03-24T06:39:24.541Z,21.97
2018-03-24T06:41:52.047Z,20.17
2018-03-24T06:44:19.536Z,20.53
2018-03-24T06:46:47.044Z,20.90
2018-03-24T06:49:14.533Z,22.77
2018-03-24T06:51:42.047Z,19.30
2018-03-24T06:54:10.295Z,23.57
2018-03-24T06:56:43.501Z,18.50
2018-03-24T06:59:10.996Z,21.93
2018-03-24T07:01:40.260Z,20.33
2018-03-24T07:04:07.755Z,21.70
2018-03-24T07:06:35.240Z,22.20
2018-03-24T07:09:02.744Z,20.90
2018-03-24T07:11:30.240Z,21.00
2018-03-24T07:13:57.751Z,22.57
2018-03-24T07:16:25.252Z,20.97
2018-03-24T07:18:52.763Z,22.07
2018-03-24T07:21:20.317Z,21.60
2018-03-24T07:23:48.552Z,22.43
2018-03-24T07:26:16.040Z,21.17
2018-03-24T07:28:43.547Z,22.00
2018-03-24T07:31:11.035Z,23.93
2018-03-24T07:33:38.527Z,22.00
2018-03-24T07:36:06.015Z,22.37
2018-03-24T07:38:34.288Z,23.03
2018-03-24T07:41:01.783Z,24.43
2018-03-24T07:43:29.288Z,22.80
2018-03-24T07:45:56.769Z,22.80
2018-03-24T07:48:24.279Z,25.17
2018-03-24T07:50:52.528Z,25.00
2018-03-24T07:53:20.044Z,26.53
2018-03-24T07:55:48.292Z,24.50
2018-03-24T07:58:15.780Z,26.10
2018-03-24T08:00:43.293Z,25.83
2018-03-24T08:03:10.785Z,25.00
2018-03-24T08:05:38.303Z,27.30
2018-03-24T08:08:06.547Z,26.07
2018-03-24T08:10:34.052Z,24.00
2018-03-24T08:13:01.541Z,22.43
2018-03-24T08:15:29.805Z,24.60
2018-03-24T08:17:57.303Z,22.80
2018-03-24T08:20:24.821Z,27.73
2018-03-24T08:22:52.316Z,26.43
2018-03-24T08:25:19.829Z,23.03
2018-03-24T08:27:47.320Z,23.30
2018-03-24T08:30:14.828Z,25.10
2018-03-24T08:32:42.324Z,23.80
2018-03-24T08:35:10.635Z,22.13
2018-03-24T08:37:38.119Z,24.90
2018-03-24T08:40:05.616Z,22.27
2018-03-24T08:45:30.664Z,24.40
2018-03-24T08:47:58.143Z,23.40
2018-03-24T08:50:25.675Z,43.70
2018-03-24T08:52:53.156Z,24.17
2018-03-24T08:55:20.643Z,23.50
2018-03-24T08:57:48.152Z,23.20
2018-03-24T09:00:16.399Z,23.87
2018-03-24T09:02:43.933Z,22.77
2018-03-24T09:05:11.452Z,22.57
2018-03-24T09:07:38.963Z,21.07
2018-03-24T09:10:06.475Z,23.07
2018-03-24T09:12:33.975Z,24.47
2018-03-24T09:15:01.507Z,24.33
2018-03-24T09:17:28.988Z,21.43
2018-03-24T09:19:56.481Z,23.53
2018-03-24T09:22:24.014Z,21.77
2018-03-24T09:24:51.522Z,19.60
2018-03-24T09:27:19.003Z,18.20
2018-03-24T09:29:47.274Z,18.80
2018-03-24T09:32:14.779Z,19.03
2018-03-24T09:34:42.296Z,31.83
2018-03-24T09:37:09.781Z,23.23
2018-03-24T09:39:37.283Z,22.60
2018-03-24T09:42:05.540Z,17.90
2018-03-24T09:44:33.049Z,15.70
2018-03-24T09:47:00.540Z,16.53
2018-03-24T09:49:28.060Z,16.10
2018-03-24T09:51:55.552Z,19.60
2018-03-24T09:54:23.833Z,15.07
2018-03-24T09:56:52.084Z,14.33
2018-03-24T09:59:19.593Z,14.50
2018-03-24T10:01:47.852Z,14.00
2018-03-24T10:04:15.352Z,16.60
2018-03-24T10:06:43.600Z,17.33
2018-03-24T10:09:11.120Z,15.17
2018-03-24T10:11:38.616Z,14.00
2018-03-24T10:14:06.127Z,14.60
2018-03-24T10:16:33.640Z,13.80
2018-03-24T10:19:01.145Z,11.80
2018-03-24T10:21:36.280Z,11.30
2018-03-24T10:27:10.271Z,12.37
2018-03-24T10:29:37.782Z,12.67
2018-03-24T10:32:06.049Z,15.00
2018-03-24T10:34:34.337Z,13.03
2018-03-24T10:37:01.825Z,12.80
2018-03-24T10:39:30.075Z,13.37
2018-03-24T10:41:57.575Z,13.67
2018-03-24T10:44:25.876Z,13.53
2018-03-24T10:46:54.128Z,12.40
2018-03-24T10:49:21.627Z,23.33
2018-03-24T10:51:49.154Z,16.07
2018-03-24T10:54:16.648Z,10.23
2018-03-24T10:56:44.160Z,10.53
2018-03-24T10:59:11.656Z,18.33
2018-03-24T11:01:39.160Z,10.93
2018-03-24T11:04:06.658Z,11.20
2018-03-24T11:06:34.175Z,10.60
2018-03-24T11:09:01.660Z,9.47
2018-03-24T11:11:29.175Z,10.47
2018-03-24T11:13:56.666Z,9.40
2018-03-24T11:16:24.179Z,11.73
2018-03-24T11:18:51.670Z,13.27
2018-03-24T11:21:19.940Z,8.57
2018-03-24T11:23:47.437Z,13.50
2018-03-24T11:26:14.952Z,8.30
2018-03-24T11:28:42.436Z,7.40
2018-03-24T11:31:09.953Z,7.20
2018-03-24T11:33:37.441Z,7.70
2018-03-24T11:36:04.927Z,8.40
2018-03-24T11:38:32.422Z,7.57
2018-03-24T11:40:59.910Z,7.13
2018-03-24T11:43:28.199Z,9.37
2018-03-24T11:45:56.456Z,9.20
2018-03-24T11:48:23.963Z,9.40
2018-03-24T11:50:52.208Z,9.40
2018-03-24T11:53:19.707Z,9.90
2018-03-24T11:55:47.191Z,9.17
2018-03-24T11:58:15.455Z,7.93
2018-03-24T12:00:42.940Z,9.63
2018-03-24T12:03:10.445Z,8.33
2018-03-24T12:05:37.937Z,9.67
2018-03-24T12:08:05.439Z,9.00
2018-03-24T12:10:32.927Z,10.37
2018-03-24T12:13:01.196Z,9.83
2018-03-24T12:15:28.688Z,8.73
2018-03-24T12:21:08.688Z,7.37
2018-03-24T12:23:36.963Z,8.80
2018-03-24T12:26:04.447Z,8.70
2018-03-24T12:28:32.720Z,8.30
2018-03-24T12:31:00.199Z,7.73
2018-03-24T12:33:28.483Z,7.50
2018-03-24T12:35:55.971Z,8.70
2018-03-24T12:38:23.479Z,8.37
2018-03-24T12:40:50.961Z,8.00
2018-03-24T12:43:18.489Z,10.00
2018-03-24T12:45:45.992Z,8.03
2018-03-24T12:48:13.500Z,15.40
2018-03-24T12:50:41.016Z,9.07
2018-03-24T12:53:08.545Z,8.87
2018-03-24T12:55:36.824Z,7.73
2018-03-24T12:58:05.097Z,8.97
2018-03-24T13:00:32.607Z,9.30
2018-03-24T13:03:00.878Z,10.20
2018-03-24T13:05:28.378Z,6.83
2018-03-24T13:07:55.872Z,8.87
2018-03-24T13:10:23.381Z,9.10
2018-03-24T13:12:50.871Z,7.67
2018-03-24T13:15:19.137Z,8.00
2018-03-24T13:17:46.664Z,7.80
2018-03-24T13:20:14.208Z,7.00
2018-03-24T13:22:42.463Z,8.43
2018-03-24T13:25:09.980Z,9.17
2018-03-24T13:27:37.493Z,7.53
2018-03-24T13:30:04.983Z,7.53
2018-03-24T13:32:32.476Z,8.57
2018-03-24T13:35:00.756Z,7.83
2018-03-24T13:37:29.044Z,7.90
2018-03-24T13:39:57.331Z,8.90
2018-03-24T13:42:25.579Z,8.10
2018-03-24T13:44:53.071Z,7.20
2018-03-24T13:47:20.585Z,7.37
2018-03-24T13:49:48.067Z,7.70
2018-03-24T13:52:15.575Z,17.53
2018-03-24T13:54:43.076Z,20.60
2018-03-24T13:57:11.352Z,11.00
2018-03-24T13:59:38.852Z,9.00
2018-03-24T14:02:06.379Z,8.33
2018-03-24T14:04:33.876Z,8.27
2018-03-24T14:07:02.164Z,9.23
2018-03-24T14:09:30.428Z,9.10
2018-03-24T14:11:57.937Z,10.27
2018-03-24T14:14:25.432Z,9.30
2018-03-24T14:16:52.940Z,8.60
2018-03-24T14:19:20.423Z,8.77
2018-03-24T14:21:48.705Z,10.93
2018-03-24T14:24:16.205Z,14.33
2018-03-24T14:26:43.728Z,11.50
2018-03-24T14:29:11.225Z,10.40
2018-03-24T14:31:39.504Z,30.80
2018-03-24T14:34:07.013Z,10.27
2018-03-24T14:36:34.512Z,11.20
2018-03-24T14:39:02.042Z,10.83
2018-03-24T14:41:30.304Z,19.47
2018-03-24T14:43:57.819Z,16.63
2018-03-24T14:46:26.094Z,11.03
2018-03-24T14:48:53.604Z,9.67
2018-03-24T14:51:21.102Z,9.60
2018-03-24T14:53:48.625Z,9.77
2018-03-24T14:56:16.118Z,8.90
2018-03-24T14:58:43.628Z,9.30
2018-03-24T15:01:11.993Z,8.57
2018-03-24T15:03:39.504Z,8.67
2018-03-24T15:06:06.991Z,9.40
2018-03-24T15:08:34.492Z,9.13
2018-03-24T15:11:01.975Z,19.13
2018-03-24T15:13:29.492Z,15.40
2018-03-24T15:15:56.991Z,8.47
2018-03-24T15:18:24.513Z,13.93
2018-03-24T15:20:52.776Z,10.00
2018-03-24T15:23:20.280Z,9.27
2018-03-24T15:25:48.537Z,9.80
2018-03-24T15:28:16.060Z,8.70
2018-03-24T15:30:55.491Z,9.00
2018-03-24T15:33:35.425Z,9.47
2018-03-24T15:36:14.751Z,10.00
2018-03-24T15:38:42.265Z,9.50
2018-03-24T15:41:10.531Z,10.57
2018-03-24T15:43:38.047Z,10.90
2018-03-24T15:46:05.545Z,31.97
2018-03-24T15:48:33.035Z,12.23
2018-03-24T15:51:00.595Z,10.77
2018-03-24T15:53:28.072Z,11.27
2018-03-24T15:55:55.596Z,10.77
2018-03-24T15:58:23.099Z,10.73
2018-03-24T16:00:50.617Z,11.17
2018-03-24T16:03:18.877Z,10.20
2018-03-24T16:05:46.380Z,9.63
2018-03-24T16:08:14.636Z,11.10
2018-03-24T16:10:42.161Z,11.87
2018-03-24T16:13:09.644Z,9.10
2018-03-24T16:15:37.154Z,9.43
2018-03-24T16:18:04.647Z,9.93
2018-03-24T16:20:32.917Z,9.90
2018-03-24T16:23:00.413Z,11.00
2018-03-24T16:25:28.687Z,9.93
2018-03-24T16:27:56.167Z,10.77
2018-03-24T16:30:24.448Z,10.20
2018-03-24T16:32:52.697Z,11.77
2018-03-24T16:35:20.199Z,11.30
2018-03-24T16:37:48.451Z,9.50
2018-03-24T16:40:15.961Z,10.33
2018-03-24T16:42:44.220Z,11.80
2018-03-24T16:45:11.730Z,9.70
2018-03-24T16:47:39.988Z,10.80
2018-03-24T16:50:07.521Z,10.53
2018-03-24T16:52:35.003Z,9.97
2018-03-24T16:55:02.516Z,10.00
2018-03-24T16:57:30.004Z,9.37
2018-03-24T17:00:04.247Z,10.27
2018-03-24T17:02:32.488Z,11.57
2018-03-24T17:05:00.003Z,10.13
2018-03-24T17:07:27.496Z,12.00
2018-03-24T17:09:54.979Z,11.47
2018-03-24T17:12:22.499Z,11.23
2018-03-24T17:14:50.756Z,10.47
2018-03-24T17:17:18.264Z,8.70
2018-03-24T17:19:45.756Z,21.20
2018-03-24T17:22:13.260Z,10.37
2018-03-24T17:24:40.751Z,22.87
2018-03-24T17:27:08.259Z,10.83
2018-03-24T17:29:35.756Z,13.50
2018-03-24T17:32:03.282Z,10.13
2018-03-24T17:34:30.775Z,10.10
2018-03-24T17:36:58.357Z,18.40
2018-03-24T17:39:25.852Z,13.20
2018-03-24T17:41:53.415Z,14.30
2018-03-24T17:44:20.971Z,11.70
2018-03-24T17:46:49.223Z,15.90
2018-03-24T17:49:16.721Z,25.70
2018-03-24T17:51:44.249Z,12.37
2018-03-24T17:54:12.525Z,11.27
2018-03-24T17:56:40.032Z,13.30
2018-03-24T17:59:07.546Z,12.57
2018-03-24T18:01:35.050Z,9.73
2018-03-24T18:04:02.536Z,10.97
2018-03-24T18:06:30.848Z,11.47
2018-03-24T18:08:58.355Z,10.10
2018-03-24T18:11:25.847Z,9.63
2018-03-24T18:13:53.344Z,10.50
2018-03-24T18:16:20.834Z,12.00
2018-03-24T18:18:48.344Z,12.10
2018-03-24T18:21:15.834Z,14.27
2018-03-24T18:23:44.110Z,48.53
2018-03-24T18:26:11.600Z,14.83
2018-03-24T18:28:39.872Z,11.53
2018-03-24T18:31:07.363Z,13.97
2018-03-24T18:33:35.634Z,12.20
2018-03-24T18:36:03.894Z,12.87
2018-03-24T18:38:31.424Z,12.50
2018-03-24T18:40:58.919Z,14.07
2018-03-24T18:43:26.430Z,11.33
2018-03-24T18:45:53.965Z,11.53
2018-03-24T18:48:21.485Z,12.20
2018-03-24T18:50:49.775Z,14.00
2018-03-24T18:53:17.261Z,13.00
2018-03-24T18:55:44.744Z,13.63
2018-03-24T18:58:12.261Z,14.17
2018-03-24T19:00:39.768Z,27.40
2018-03-24T19:03:07.284Z,29.47
2018-03-24T19:05:34.779Z,36.80
2018-03-24T19:08:02.288Z,23.83
2018-03-24T19:10:29.777Z,13.47
2018-03-24T19:12:58.061Z,15.90
2018-03-24T19:15:25.564Z,13.03
2018-03-24T19:17:53.051Z,12.83
2018-03-24T19:20:20.571Z,10.10
2018-03-24T19:22:48.060Z,10.97
2018-03-24T19:25:15.567Z,10.50
2018-03-24T19:27:43.062Z,9.63
2018-03-24T19:30:10.594Z,11.30
2018-03-24T19:32:38.079Z,11.30
2018-03-24T19:35:06.395Z,12.83
2018-03-24T19:37:33.918Z,12.47
2018-03-24T19:40:01.409Z,11.47
2018-03-24T19:42:29.656Z,12.57
2018-03-24T19:44:57.173Z,12.27
2018-03-24T19:47:25.427Z,10.80
2018-03-24T19:49:52.931Z,11.50
2018-03-24T19:52:21.182Z,13.37
2018-03-24T19:54:48.701Z,13.13
2018-03-24T19:57:16.951Z,13.53
2018-03-24T19:59:44.461Z,14.10
2018-03-24T20:02:11.951Z,13.30
2018-03-24T20:04:49.104Z,14.20
2018-03-24T20:07:16.593Z,13.20
2018-03-24T20:09:44.865Z,14.00
2018-03-24T20:12:12.359Z,29.27
2018-03-24T20:14:40.638Z,31.80
2018-03-24T20:17:08.884Z,16.13
2018-03-24T20:19:36.412Z,13.00
2018-03-24T20:22:03.894Z,13.03
2018-03-24T20:24:31.381Z,12.07
2018-03-24T20:26:58.892Z,12.00
2018-03-24T20:29:26.377Z,11.77
2018-03-24T20:31:54.644Z,11.30
2018-03-24T20:34:22.132Z,12.57
2018-03-24T20:36:50.404Z,14.27
2018-03-24T20:39:17.905Z,13.20
2018-03-24T20:41:45.407Z,53.27
2018-03-24T20:44:12.891Z,60.83
2018-03-24T20:46:40.390Z,25.10
2018-03-24T20:49:08.653Z,17.73
2018-03-24T20:51:36.164Z,16.40
2018-03-24T20:54:04.441Z,16.70
2018-03-24T20:56:32.719Z,13.97
2018-03-24T20:59:00.208Z,14.70
2018-03-24T21:01:28.493Z,15.10
2018-03-24T21:03:56.006Z,13.53
2018-03-24T21:06:23.509Z,12.80
2018-03-24T21:08:51.006Z,13.70
2018-03-24T21:11:19.264Z,13.80
2018-03-24T21:13:46.771Z,11.73
2018-03-24T21:16:15.023Z,14.00
2018-03-24T21:18:42.546Z,12.17
2018-03-24T21:21:10.032Z,12.00
2018-03-24T21:23:37.531Z,13.03
2018-03-24T21:26:05.025Z,12.90
2018-03-24T21:28:32.538Z,11.57
2018-03-24T21:31:00.029Z,13.47
2018-03-24T21:33:27.536Z,11.03
2018-03-24T21:35:55.030Z,11.00
2018-03-24T21:38:22.555Z,12.70
2018-03-24T21:40:50.045Z,11.80
2018-03-24T21:43:17.532Z,11.90
2018-03-24T21:45:45.801Z,11.37
2018-03-24T21:48:13.290Z,12.80
2018-03-24T21:50:42.591Z,13.00
2018-03-24T21:53:10.872Z,12.57
2018-03-24T21:55:38.382Z,12.17
2018-03-24T21:58:05.885Z,11.17
2018-03-24T22:00:33.409Z,15.00
2018-03-24T22:03:01.676Z,27.30
2018-03-24T22:05:29.247Z,17.20
2018-03-24T22:07:56.700Z,11.67
2018-03-24T22:10:24.211Z,11.40
2018-03-24T22:12:51.720Z,12.27
2018-03-24T22:15:19.219Z,13.07
2018-03-24T22:17:46.720Z,12.33
2018-03-24T22:20:14.248Z,11.60
2018-03-24T22:22:41.744Z,11.23
2018-03-24T22:25:09.252Z,11.73
2018-03-24T22:27:36.735Z,10.80
2018-03-24T22:30:04.222Z,11.70
2018-03-24T22:32:31.723Z,11.10
2018-03-24T22:34:59.218Z,30.60
2018-03-24T22:37:26.731Z,32.23
2018-03-24T22:39:54.231Z,14.60
2018-03-24T22:42:22.517Z,12.87
2018-03-24T22:44:50.007Z,13.33
2018-03-24T22:47:18.279Z,14.23
2018-03-24T22:49:45.768Z,13.50
2018-03-24T22:52:13.275Z,12.70
2018-03-24T22:54:40.775Z,12.17
2018-03-24T22:57:08.301Z,12.87
2018-03-24T22:59:35.794Z,11.60
2018-03-24T23:02:03.315Z,13.03
2018-03-24T23:04:31.568Z,13.27
2018-03-24T23:06:59.089Z,12.73
2018-03-24T23:09:26.583Z,13.63
2018-03-24T23:11:54.126Z,13.80
2018-03-24T23:14:21.643Z,13.77
2018-03-24T23:16:49.136Z,12.77
2018-03-24T23:19:16.648Z,14.47
2018-03-24T23:21:44.135Z,14.27
2018-03-24T23:24:12.417Z,14.70
2018-03-24T23:26:39.915Z,13.50
2018-03-24T23:29:07.422Z,14.60
2018-03-24T23:31:35.679Z,14.50
2018-03-24T23:34:03.187Z,14.10
2018-03-24T23:36:31.443Z,15.70
2018-03-24T23:38:58.967Z,16.53
2018-03-24T23:41:27.215Z,19.23
2018-03-24T23:43:54.858Z,18.50
2018-03-24T23:46:28.098Z,18.57
2018-03-24T23:48:55.617Z,18.17
2018-03-24T23:51:23.119Z,20.20
2018-03-24T23:53:50.633Z,18.40
2018-03-24T23:56:18.127Z,17.03
2018-03-24T23:58:45.612Z,15.80
